createdAt,value
2023-02-11T00:02:00.278Z,102014.09
2023-02-11T00:04:29.804Z,102004.78
2023-02-11T00:06:57.943Z,101999.72
2023-02-11T00:09:26.112Z,101994.63
2023-02-11T00:11:54.184Z,102001.53
2023-02-11T00:14:22.297Z,101998.22
2023-02-11T00:16:50.450Z,101997.44
2023-02-11T00:19:18.570Z,101989.91
2023-02-11T00:21:48.059Z,101984.94
2023-02-11T00:24:16.148Z,101991.94
2023-02-11T00:26:44.906Z,101991.28
2023-02-11T00:29:13.013Z,101990.56
2023-02-11T00:31:42.085Z,101993.31
2023-02-11T00:34:10.319Z,101997.75
2023-02-11T00:36:39.951Z,101989.38
2023-02-11T00:39:10.470Z,101980.91
2023-02-11T00:41:38.653Z,101986.94
2023-02-11T00:44:06.849Z,101988.78
2023-02-11T00:46:35.092Z,101992.28
2023-02-11T00:49:03.291Z,101983.81
2023-02-11T00:51:32.190Z,101983.88
2023-02-11T00:54:00.370Z,101984.72
2023-02-11T00:56:29.848Z,101983.09
2023-02-11T00:58:57.946Z,101985.69
2023-02-11T01:01:26.315Z,101986.53
2023-02-11T01:03:54.453Z,101987.38
2023-02-11T01:06:24.846Z,101988.25
2023-02-11T01:08:53.075Z,101990.00
2023-02-11T01:11:21.761Z,101984.91
2023-02-11T01:13:51.399Z,101978.03
2023-02-11T01:16:20.591Z,101982.38
2023-02-11T01:18:48.898Z,101980.69
2023-02-11T01:21:19.099Z,101978.13
2023-02-11T01:23:47.290Z,101973.97
2023-02-11T01:26:15.462Z,101972.28
2023-02-11T01:28:43.680Z,101979.91
2023-02-11T01:31:13.304Z,101973.91
2023-02-11T01:33:41.533Z,101950.91
2023-02-11T01:36:11.799Z,101960.25
2023-02-11T01:38:41.006Z,101958.59
2023-02-11T01:41:11.303Z,101959.50
2023-02-11T01:43:41.015Z,101959.59
2023-02-11T01:46:21.768Z,101947.75
2023-02-11T01:48:52.438Z,101954.63
2023-02-11T01:51:24.587Z,101941.09
2023-02-11T01:54:10.382Z,101936.91
2023-02-11T01:56:58.427Z,101940.34
2023-02-11T01:59:31.365Z,101931.91
2023-02-11T02:02:03.543Z,101929.41
2023-02-11T02:04:36.496Z,101920.91
2023-02-11T02:07:07.601Z,101916.66
2023-02-11T02:09:40.380Z,101912.50
2023-02-11T02:12:08.459Z,101909.94
2023-02-11T02:14:40.414Z,101894.63
2023-02-11T02:17:11.615Z,101904.03
2023-02-11T02:20:24.174Z,101901.47
2023-02-11T02:23:20.802Z,101898.94
2023-02-11T02:26:30.950Z,101905.78
2023-02-11T02:29:25.526Z,101903.25
2023-02-11T02:32:39.522Z,101899.81
2023-02-11T02:35:16.847Z,101894.81
2023-02-11T02:37:49.166Z,101890.53
2023-02-11T02:40:21.144Z,101877.75
2023-02-11T02:42:49.341Z,101888.84
2023-02-11T02:45:17.597Z,101888.03
2023-02-11T02:47:47.109Z,101891.44
2023-02-11T02:50:15.513Z,101886.34
2023-02-11T02:52:47.872Z,101874.38
2023-02-11T02:55:36.227Z,101876.97
2023-02-11T02:58:23.365Z,101877.78
2023-02-11T03:00:55.617Z,101880.34
2023-02-11T03:03:30.407Z,101873.53
2023-02-11T03:06:01.589Z,101862.44
2023-02-11T03:08:33.275Z,101876.91
2023-02-11T03:11:01.918Z,101881.13
2023-02-11T03:13:33.519Z,101876.91
2023-02-11T03:16:04.311Z,101890.50
2023-02-11T03:18:33.912Z,101888.81
2023-02-11T03:21:02.046Z,101899.00
2023-02-11T03:23:31.936Z,101891.28
2023-02-11T03:26:03.833Z,101892.13
2023-02-11T03:28:34.035Z,101892.09
2023-02-11T03:31:10.878Z,101896.38
2023-02-11T03:33:43.697Z,101904.94
2023-02-11T03:36:15.148Z,101896.41
2023-02-11T03:38:46.924Z,101886.25
2023-02-11T03:41:15.092Z,101875.19
2023-02-11T03:43:45.251Z,101876.84
2023-02-11T03:46:13.518Z,101880.28
2023-02-11T03:48:45.396Z,101870.91
2023-02-11T03:51:13.968Z,101868.38
2023-02-11T03:53:44.168Z,101874.34
2023-02-11T03:56:14.761Z,101876.91
2023-02-11T03:58:42.939Z,101876.91
2023-02-11T04:01:11.228Z,101869.22
2023-02-11T04:03:39.389Z,101874.34
2023-02-11T04:06:09.365Z,101882.88
2023-02-11T04:08:37.453Z,101871.84
2023-02-11T04:11:05.633Z,101867.59
2023-02-11T04:13:33.725Z,101857.38
2023-02-11T04:16:01.928Z,101847.16
2023-02-11T04:18:30.133Z,101844.53
2023-02-11T04:20:58.208Z,101840.31
2023-02-11T04:23:27.723Z,101837.75
2023-02-11T04:25:55.814Z,101828.34
2023-02-11T04:28:23.997Z,101820.69
2023-02-11T04:30:52.336Z,101821.50
2023-02-11T04:33:20.611Z,101817.19
2023-02-11T04:35:49.207Z,101809.50
2023-02-11T04:38:17.632Z,101811.16
2023-02-11T04:40:47.086Z,101800.88
2023-02-11T04:43:15.187Z,101798.22
2023-02-11T04:45:43.328Z,101817.84
2023-02-11T04:48:11.485Z,101823.75
2023-02-11T04:50:39.600Z,101837.34
2023-02-11T04:53:07.701Z,101835.59
2023-02-11T04:55:35.950Z,101844.97
2023-02-11T04:58:05.484Z,101838.13
2023-02-11T05:00:33.632Z,101838.88
2023-02-11T05:03:01.725Z,101839.72
2023-02-11T05:05:29.922Z,101840.59
2023-02-11T05:07:58.461Z,101843.09
2023-02-11T05:10:26.639Z,101845.59
2023-02-11T05:12:56.128Z,101852.34
2023-02-11T05:15:25.691Z,101855.66
2023-02-11T05:17:53.974Z,101857.22
2023-02-11T05:20:22.324Z,101868.19
2023-02-11T05:22:50.540Z,101858.75
2023-02-11T05:25:20.323Z,101848.47
2023-02-11T05:27:48.514Z,101840.81
2023-02-11T05:30:16.692Z,101833.94
2023-02-11T05:32:46.197Z,101835.63
2023-02-11T05:35:14.292Z,101833.13
2023-02-11T05:37:42.415Z,101825.50
2023-02-11T05:40:11.563Z,101828.13
2023-02-11T05:42:39.667Z,101822.19
2023-02-11T05:45:09.354Z,101824.81
2023-02-11T05:47:37.466Z,101818.03
2023-02-11T05:50:07.770Z,101821.50
2023-02-11T05:52:35.877Z,101833.47
2023-02-11T05:55:04.587Z,101834.34
2023-02-11T05:57:32.734Z,101828.44
2023-02-11T06:00:00.878Z,101821.69
2023-02-11T06:02:29.074Z,101824.25
2023-02-11T06:04:57.253Z,101827.66
2023-02-11T06:07:26.779Z,101815.78
2023-02-11T06:09:56.190Z,101825.13
2023-02-11T06:12:24.398Z,101830.19
2023-02-11T06:14:52.588Z,101818.31
2023-02-11T06:17:20.705Z,101818.34
2023-02-11T06:19:48.820Z,101818.34
2023-02-11T06:22:17.026Z,101809.84
2023-02-11T06:25:00.782Z,101809.84
2023-02-11T06:30:19.268Z,101826.00
2023-02-11T06:32:57.773Z,101826.84
2023-02-11T06:35:31.313Z,101838.00
2023-02-11T06:38:27.882Z,101843.03
2023-02-11T06:41:01.807Z,101810.59
2023-02-11T06:43:37.935Z,101825.25
2023-02-11T06:46:06.532Z,101831.19
2023-02-11T06:48:34.969Z,101831.16
2023-02-11T06:51:03.972Z,101830.25
2023-02-11T06:53:32.190Z,101841.34
2023-02-11T06:56:05.394Z,101848.13
2023-02-11T06:58:33.707Z,101850.66
2023-02-11T07:01:06.163Z,101841.28
2023-02-11T07:03:36.127Z,101840.44
2023-02-11T07:06:05.501Z,101847.28
2023-02-11T07:08:34.333Z,101851.53
2023-02-11T07:11:10.083Z,101841.34
2023-02-11T07:13:38.383Z,101838.81
2023-02-11T07:16:07.746Z,101838.00
2023-02-11T07:18:35.927Z,101844.81
2023-02-11T07:21:06.744Z,101845.72
2023-02-11T07:23:35.096Z,101850.84
2023-02-11T07:26:06.009Z,101852.59
2023-02-11T07:28:35.121Z,101849.22
2023-02-11T07:31:08.276Z,101836.47
2023-02-11T07:33:36.789Z,101836.47
2023-02-11T07:36:06.048Z,101839.91
2023-02-11T07:38:34.439Z,101844.19
2023-02-11T07:41:02.811Z,101852.75
2023-02-11T07:43:32.417Z,101862.06
2023-02-11T07:46:00.698Z,101862.97
2023-02-11T07:48:28.920Z,101861.34
2023-02-11T07:50:57.601Z,101864.88
2023-02-11T07:53:25.718Z,101863.44
2023-02-11T07:55:53.879Z,101851.91
2023-02-11T07:58:22.006Z,101863.22
2023-02-11T08:00:51.596Z,101859.91
2023-02-11T08:03:19.751Z,101843.88
2023-02-11T08:05:47.902Z,101847.53
2023-02-11T08:08:16.148Z,101849.44
2023-02-11T08:10:44.386Z,101847.81
2023-02-11T08:13:12.523Z,101843.59
2023-02-11T08:15:40.658Z,101841.94
2023-02-11T08:18:10.168Z,101831.69
2023-02-11T08:20:38.281Z,101834.25
2023-02-11T08:23:07.433Z,101837.63
2023-02-11T08:25:35.805Z,101835.91
2023-02-11T08:28:03.997Z,101845.34
2023-02-11T08:30:32.166Z,101845.34
2023-02-11T08:33:00.432Z,101845.28
2023-02-11T08:35:29.929Z,101834.94
2023-02-11T08:37:58.398Z,101832.31
2023-02-11T08:40:26.748Z,101834.09
2023-02-11T08:42:54.877Z,101835.03
2023-02-11T08:45:22.994Z,101834.16
2023-02-11T08:47:51.564Z,101843.59
2023-02-11T08:50:19.961Z,101845.22
2023-02-11T08:52:49.593Z,101847.66
2023-02-11T08:55:17.899Z,101851.75
2023-02-11T08:57:46.180Z,101850.78
2023-02-11T09:00:16.686Z,101857.59
2023-02-11T09:02:44.825Z,101853.31
2023-02-11T09:05:13.253Z,101853.38
2023-02-11T09:07:41.604Z,101849.78
2023-02-11T09:10:11.436Z,101848.66
2023-02-11T09:12:39.663Z,101852.69
2023-02-11T09:15:09.195Z,101856.66
2023-02-11T09:17:37.380Z,101856.25
2023-02-11T09:20:08.578Z,101856.09
2023-02-11T09:22:37.925Z,101857.03
2023-02-11T09:25:06.841Z,101867.59
2023-02-11T09:27:36.338Z,101867.81
2023-02-11T09:30:05.117Z,101860.28
2023-02-11T09:32:33.278Z,101863.94
2023-02-11T09:35:01.375Z,101861.66
2023-02-11T09:37:29.531Z,101878.16
2023-02-11T09:39:57.666Z,101865.41
2023-02-11T09:42:39.960Z,101865.53
2023-02-11T09:45:15.819Z,101867.34
2023-02-11T09:47:49.032Z,101870.88
2023-02-11T09:50:20.545Z,101872.69
2023-02-11T09:52:52.677Z,101867.59
2023-02-11T09:55:22.852Z,101870.19
2023-02-11T09:57:52.551Z,101872.78
2023-02-11T10:00:24.079Z,101868.47
2023-02-11T10:03:39.954Z,101878.75
2023-02-11T10:06:19.916Z,101877.88
2023-02-11T10:08:56.015Z,101872.69
2023-02-11T10:11:32.084Z,101865.00
2023-02-11T10:14:12.360Z,101882.06
2023-02-11T10:16:52.379Z,101882.09
2023-02-11T10:19:40.047Z,101883.88
2023-02-11T10:22:11.655Z,101890.72
2023-02-11T10:24:39.787Z,101889.00
2023-02-11T10:27:15.862Z,101882.19
2023-02-11T10:29:48.874Z,101877.03
2023-02-11T10:32:26.054Z,101874.50
2023-02-11T10:34:54.245Z,101880.47
2023-02-11T10:37:22.411Z,101873.66
2023-02-11T10:39:50.572Z,101868.47
2023-02-11T10:42:18.701Z,101868.47
2023-02-11T10:44:57.928Z,101856.50
2023-02-11T10:47:28.605Z,101874.50
2023-02-11T10:50:03.211Z,101861.63
2023-02-11T10:52:32.106Z,101871.06
2023-02-11T10:55:03.448Z,101868.50
2023-02-11T10:57:35.689Z,101871.06
2023-02-11T11:00:22.615Z,101871.91
2023-02-11T11:02:56.515Z,101859.09
2023-02-11T11:05:31.520Z,101866.75
2023-02-11T11:08:00.908Z,101861.59
2023-02-11T11:10:43.389Z,101867.59
2023-02-11T11:13:26.457Z,101871.00
2023-02-11T11:16:27.171Z,101874.41
2023-02-11T11:19:16.414Z,101875.16
2023-02-11T11:21:45.859Z,101876.72
2023-02-11T11:24:18.568Z,101873.19
2023-02-11T11:26:47.886Z,101878.19
2023-02-11T11:29:18.148Z,101869.34
2023-02-11T11:31:52.801Z,101874.38
2023-02-11T11:34:24.641Z,101874.22
2023-02-11T11:36:52.729Z,101876.66
2023-02-11T11:39:24.288Z,101873.97
2023-02-11T11:41:57.388Z,101880.66
2023-02-11T11:44:29.829Z,101881.44
2023-02-11T11:47:23.341Z,101864.22
2023-02-11T11:49:58.851Z,101842.53
2023-02-11T11:52:36.930Z,101838.78
2023-02-11T11:55:13.333Z,101819.47
2023-02-11T11:57:41.814Z,101830.88
2023-02-11T12:00:17.750Z,101824.50
2023-02-11T12:03:40.328Z,101815.53
2023-02-11T12:06:22.063Z,101816.22
2023-02-11T12:08:58.060Z,101818.34
2023-02-11T12:11:30.860Z,101816.09
2023-02-11T12:14:08.173Z,101818.03
2023-02-11T12:16:45.252Z,101822.56
2023-02-11T12:19:39.798Z,101822.03
2023-02-11T12:22:12.211Z,101826.47
2023-02-11T12:25:01.346Z,101828.25
2023-02-11T12:27:42.898Z,101823.16
2023-02-11T12:30:22.807Z,101826.09
2023-02-11T12:32:56.607Z,101815.13
2023-02-11T12:35:33.558Z,101835.78
2023-02-11T12:38:29.485Z,101830.69
2023-02-11T12:41:10.166Z,101840.16
2023-02-11T12:43:38.490Z,101827.38
2023-02-11T12:46:39.600Z,101830.91
2023-02-11T12:49:54.021Z,101835.28
2023-02-11T12:52:36.827Z,101828.59
2023-02-11T12:55:10.443Z,101820.94
2023-02-11T12:57:38.959Z,101825.28
2023-02-11T13:00:09.576Z,101828.69
2023-02-11T13:02:43.364Z,101830.44
2023-02-11T13:05:23.279Z,101830.50
2023-02-11T13:07:54.534Z,101827.97
2023-02-11T13:10:32.416Z,101822.00
2023-02-11T13:13:18.604Z,101820.31
2023-02-11T13:15:51.200Z,101817.00
2023-02-11T13:18:38.224Z,101811.09
2023-02-11T13:21:25.559Z,101813.66
2023-02-11T13:23:59.794Z,101811.94
2023-02-11T13:26:30.951Z,101805.09
2023-02-11T13:29:07.738Z,101810.19
2023-02-11T13:31:35.941Z,101812.72
2023-02-11T13:34:04.715Z,101807.53
2023-02-11T13:36:33.320Z,101812.63
2023-02-11T13:39:05.140Z,101811.78
2023-02-11T13:41:38.247Z,101802.34
2023-02-11T13:44:30.583Z,101802.38
2023-02-11T13:47:01.494Z,101791.22
2023-02-11T13:49:36.686Z,101794.66
2023-02-11T13:52:07.367Z,101795.50
2023-02-11T13:54:38.806Z,101799.72
2023-02-11T13:57:39.049Z,101795.38
2023-02-11T14:00:50.690Z,101813.44
2023-02-11T14:04:12.270Z,101804.03
2023-02-11T14:06:58.306Z,101798.91
2023-02-11T14:09:40.925Z,101799.75
2023-02-11T14:12:36.988Z,101793.75
2023-02-11T14:15:28.557Z,101800.69
2023-02-11T14:17:57.056Z,101801.66
2023-02-11T14:20:40.438Z,101806.00
2023-02-11T14:23:08.599Z,101800.91
2023-02-11T14:25:38.247Z,101799.25
2023-02-11T14:28:11.224Z,101804.47
2023-02-11T14:30:51.950Z,101813.09
2023-02-11T14:34:05.296Z,101819.13
2023-02-11T14:37:04.958Z,101818.31
2023-02-11T14:39:46.847Z,101818.34
2023-02-11T14:42:20.797Z,101823.47
2023-02-11T14:44:49.638Z,101820.06
2023-02-11T14:47:20.132Z,101821.75
2023-02-11T14:49:48.344Z,101820.88
2023-02-11T14:52:24.297Z,101831.16
2023-02-11T14:54:52.905Z,101835.44
2023-02-11T14:57:22.427Z,101826.84
2023-02-11T14:59:59.386Z,101832.84
2023-02-11T15:02:31.976Z,101838.81
2023-02-11T15:05:17.126Z,101825.06
2023-02-11T15:07:47.629Z,101830.19
2023-02-11T15:10:29.900Z,101820.69
2023-02-11T15:12:59.527Z,101819.81
2023-02-11T15:15:27.913Z,101819.78
2023-02-11T15:17:57.379Z,101822.34
2023-02-11T15:20:27.626Z,101826.63
2023-02-11T15:22:58.780Z,101830.88
2023-02-11T15:25:27.980Z,101832.56
2023-02-11T15:27:57.607Z,101836.00
2023-02-11T15:30:30.870Z,101832.56
2023-02-11T15:33:00.324Z,101834.31
2023-02-11T15:35:30.309Z,101837.72
2023-02-11T15:37:58.661Z,101835.16
2023-02-11T15:40:28.903Z,101830.81
2023-02-11T15:42:58.893Z,101835.09
2023-02-11T15:45:31.306Z,101837.69
2023-02-11T15:48:03.483Z,101858.28
2023-02-11T15:50:33.428Z,101844.56
2023-02-11T15:53:03.691Z,101849.75
2023-02-11T15:55:31.864Z,101844.66
2023-02-11T15:58:01.911Z,101848.09
2023-02-11T16:00:35.596Z,101843.81
2023-02-11T16:03:03.805Z,101843.84
2023-02-11T16:05:33.803Z,101857.59
2023-02-11T16:08:02.225Z,101851.63
2023-02-11T16:10:31.718Z,101847.38
2023-02-11T16:13:19.712Z,101853.47
2023-02-11T16:15:53.768Z,101860.38
2023-02-11T16:18:38.171Z,101860.41
2023-02-11T16:21:08.525Z,101876.72
2023-02-11T16:23:38.627Z,101863.00
2023-02-11T16:26:11.152Z,101869.03
2023-02-11T16:28:39.308Z,101869.91
2023-02-11T16:31:09.727Z,101861.34
2023-02-11T16:33:37.959Z,101863.06
2023-02-11T16:36:12.975Z,101860.50
2023-02-11T16:38:41.206Z,101857.91
2023-02-11T16:41:11.805Z,101853.63
2023-02-11T16:43:40.051Z,101855.34
2023-02-11T16:46:09.932Z,101857.06
2023-02-11T16:48:38.908Z,101868.22
2023-02-11T16:51:09.216Z,101866.53
2023-02-11T16:53:37.825Z,101868.25
2023-02-11T16:56:06.581Z,101871.72
2023-02-11T16:58:34.726Z,101880.31
2023-02-11T17:01:02.891Z,101878.59
2023-02-11T17:03:37.454Z,101876.03
2023-02-11T17:06:07.122Z,101873.47
2023-02-11T17:08:35.600Z,101880.34
2023-02-11T17:11:04.063Z,101886.41
2023-02-11T17:13:32.382Z,101880.41
2023-02-11T17:16:00.585Z,101887.28
2023-02-11T17:18:29.260Z,101885.56
2023-02-11T17:20:58.851Z,101880.47
2023-02-11T17:23:27.275Z,101876.19
2023-02-11T17:25:58.584Z,101887.31
2023-02-11T17:28:26.781Z,101886.47
2023-02-11T17:30:55.081Z,101874.47
2023-02-11T17:33:23.334Z,101883.91
2023-02-11T17:35:51.916Z,101893.31
2023-02-11T17:38:21.681Z,101894.16
2023-02-11T17:40:58.851Z,101890.75
2023-02-11T17:43:27.076Z,101901.03
2023-02-11T17:45:55.652Z,101903.59
2023-02-11T17:48:23.808Z,101905.31
2023-02-11T17:50:52.234Z,101901.88
2023-02-11T17:53:21.754Z,101904.44
2023-02-11T17:55:50.583Z,101904.44
2023-02-11T17:58:18.974Z,101903.59
2023-02-11T18:00:47.194Z,101918.13
2023-02-11T18:03:15.563Z,101917.28
2023-02-11T18:05:43.799Z,101918.13
2023-02-11T18:08:12.060Z,101925.00
2023-02-11T18:10:42.212Z,101924.09
2023-02-11T18:13:10.491Z,101918.97
2023-02-11T18:15:38.648Z,101919.81
2023-02-11T18:18:06.830Z,101923.22
2023-02-11T18:20:35.054Z,101919.81
2023-02-11T18:23:03.737Z,101928.38
2023-02-11T18:25:31.980Z,101921.50
2023-02-11T18:28:02.532Z,101925.81
2023-02-11T18:30:32.000Z,101921.53
2023-02-11T18:33:00.516Z,101921.56
2023-02-11T18:35:28.900Z,101922.41
2023-02-11T18:37:57.176Z,101923.25
2023-02-11T18:40:25.352Z,101923.25
2023-02-11T18:42:53.527Z,101926.66
2023-02-11T18:45:23.964Z,101919.84
2023-02-11T18:47:52.178Z,101935.22
2023-02-11T18:50:22.102Z,101928.41
2023-02-11T18:52:50.429Z,101923.25
2023-02-11T18:55:23.450Z,101929.25
2023-02-11T18:57:52.627Z,101936.97
2023-02-11T19:00:23.469Z,101924.97
2023-02-11T19:02:52.990Z,101924.13
2023-02-11T19:05:21.658Z,101922.41
2023-02-11T19:07:50.879Z,101919.81
2023-02-11T19:10:19.482Z,101929.25
2023-02-11T19:12:47.698Z,101916.41
2023-02-11T19:15:15.994Z,101920.72
2023-02-11T19:17:45.602Z,101917.28
2023-02-11T19:20:13.787Z,101918.09
2023-02-11T19:22:42.094Z,101918.09
2023-02-11T19:25:11.038Z,101923.25
2023-02-11T19:27:41.732Z,101928.38
2023-02-11T19:30:11.194Z,101922.38
2023-02-11T19:32:39.391Z,101917.22
2023-02-11T19:35:09.440Z,101939.47
2023-02-11T19:37:37.608Z,101934.34
2023-02-11T19:40:08.771Z,101935.22
2023-02-11T19:42:37.033Z,101937.78
2023-02-11T19:45:07.399Z,101936.91
2023-02-11T19:47:35.705Z,101930.03
2023-02-11T19:50:04.657Z,101930.91
2023-02-11T19:52:34.357Z,101934.34
2023-02-11T19:55:02.559Z,101947.22
2023-02-11T19:57:30.796Z,101938.63
2023-02-11T19:59:58.909Z,101942.09
2023-02-11T20:02:28.459Z,101947.22
2023-02-11T20:04:56.666Z,101935.22
2023-02-11T20:07:25.018Z,101945.50
2023-02-11T20:09:54.548Z,101948.06
2023-02-11T20:12:22.824Z,101959.16
2023-02-11T20:14:51.085Z,101957.47
2023-02-11T20:17:19.374Z,101959.22
2023-02-11T20:19:47.595Z,101958.34
2023-02-11T20:22:15.835Z,101947.22
2023-02-11T20:24:44.061Z,101965.19
2023-02-11T20:27:13.688Z,101956.59
2023-02-11T20:29:41.932Z,101954.91
2023-02-11T20:32:10.638Z,101960.88
2023-02-11T20:34:39.638Z,101955.75
2023-02-11T20:37:08.311Z,101964.31
2023-02-11T20:39:37.292Z,101962.59
2023-02-11T20:42:05.698Z,101960.03
2023-02-11T20:44:36.610Z,101959.16
2023-02-11T20:47:05.101Z,101962.56
2023-02-11T20:49:33.658Z,101957.44
2023-02-11T20:52:01.814Z,101958.28
2023-02-11T20:54:30.276Z,101950.63
2023-02-11T20:56:59.690Z,101949.75
2023-02-11T20:59:27.911Z,101948.88
2023-02-11T21:01:57.677Z,101944.63
2023-02-11T21:04:27.063Z,101954.00
2023-02-11T21:06:56.888Z,101956.59
2023-02-11T21:09:26.531Z,101957.44
2023-02-11T21:11:54.760Z,101950.59
2023-02-11T21:14:23.978Z,101951.44
2023-02-11T21:16:52.429Z,101950.56
2023-02-11T21:19:22.020Z,101953.97
2023-02-11T21:21:50.348Z,101950.53
2023-02-11T21:24:18.499Z,101953.13
2023-02-11T21:26:46.718Z,101955.72
2023-02-11T21:29:14.897Z,101954.03
2023-02-11T21:31:43.213Z,101956.63
2023-02-11T21:34:11.456Z,101958.31
2023-02-11T21:36:40.906Z,101960.88
2023-02-11T21:39:09.140Z,101963.44
2023-02-11T21:41:37.261Z,101960.06
2023-02-11T21:44:05.396Z,101963.44
2023-02-11T21:46:33.868Z,101966.84
2023-02-11T21:49:02.160Z,101964.28
2023-02-11T21:51:30.339Z,101965.13
2023-02-11T21:54:01.453Z,101978.00
2023-02-11T21:56:30.483Z,101976.28
2023-02-11T21:58:59.584Z,101974.59
2023-02-11T22:01:29.302Z,101985.69
2023-02-11T22:03:58.045Z,101995.88
2023-02-11T22:06:28.092Z,101993.31
2023-02-11T22:08:56.353Z,102001.94
2023-02-11T22:11:25.953Z,101986.53
2023-02-11T22:13:55.031Z,101988.28
2023-02-11T22:16:23.676Z,101992.56
2023-02-11T22:18:51.952Z,101994.25
2023-02-11T22:21:21.873Z,101987.38
2023-02-11T22:23:50.076Z,101979.69
2023-02-11T22:26:20.129Z,101987.41
2023-02-11T22:28:49.796Z,101974.50
2023-02-11T22:31:19.687Z,101973.66
2023-02-11T22:33:48.062Z,101975.38
2023-02-11T22:36:19.293Z,101973.66
2023-02-11T22:38:47.903Z,101977.13
2023-02-11T22:41:16.109Z,101978.84
2023-02-11T22:43:44.577Z,101972.88
2023-02-11T22:46:15.769Z,101980.56
2023-02-11T22:48:44.087Z,101971.16
2023-02-11T22:51:16.828Z,101973.69
2023-02-11T22:53:45.051Z,101970.25
2023-02-11T22:56:15.628Z,101974.50
2023-02-11T22:58:44.260Z,101974.50
2023-02-11T23:01:13.895Z,101974.50
2023-02-11T23:03:42.336Z,101984.75
2023-02-11T23:06:12.414Z,101983.06
2023-02-11T23:08:41.145Z,101983.88
2023-02-11T23:11:10.693Z,101984.69
2023-02-11T23:13:40.190Z,101984.66
2023-02-11T23:16:10.066Z,101987.19
2023-02-11T23:18:41.023Z,101996.56
2023-02-11T23:21:12.596Z,101982.91
2023-02-11T23:23:41.027Z,101983.75
2023-02-11T23:26:11.019Z,101991.47
2023-02-11T23:28:39.588Z,101993.19
2023-02-11T23:31:18.860Z,102002.59
2023-02-11T23:33:48.725Z,102006.84
2023-02-11T23:36:17.450Z,102004.28
2023-02-11T23:38:45.735Z,102012.00
2023-02-11T23:41:14.100Z,102021.44
2023-02-11T23:43:42.204Z,102012.00
2023-02-11T23:46:10.642Z,102006.88
2023-02-11T23:48:40.426Z,102008.56
2023-02-11T23:51:10.653Z,102010.31
2023-02-11T23:53:39.085Z,101999.16
2023-02-11T23:56:09.311Z,102008.63
2023-02-11T23:58:37.664Z,102006.91
